Santa Barbara do Sul, Brazil
Current Conditions -  °F | °C
As of 12:00 PM on Sunday 21 Dec 2014 (Local Time) from SBCH Reporting Station
Broken Clouds Broken Clouds  
Wind Chill: 75°   Ceiling: 3000
Heat Index: 75°   Visibility: 6mi
Dew Point: 70°   Wind: 23mph
Humidity: 83%   Direction: 10°N
Pressure: 29.71"   Gusts: NA
Location:  28.36°S, 53.25°W
Report Text: SBCH 211400Z 01020KT 9999 FEW006 BKN030 BKN090 24/21 Q1006
Loading
Personal Weather Stations






























Interactive Weather Map New forecast layout! Learn more

10-Day Weather Forecast

Advertisements
Track Severe Weather on mobile